Time;durP1;ratioP1;P1;durP2;ratioP2;P2;SDS_P1;SDS_P2;PMS_P1;PMS_P2;Temp;Humidity;BMP_temperature;BMP_pressure;BME280_temperature;BME280_humidity;BME280_pressure;Samples;Min_cycle;Max_cycle;Signal;HPM_P1;HPM_P2
2023/12/15 00:00:01;;;;;;;0.80;0.22;;;;;;;9.26;73.52;99428.75;3168059;28;20055;-70
2023/12/15 00:01:32;;;;;;;0.43;0.10;;;;;;;9.01;73.78;99395.22;3168877;28;20046;-70
2023/12/15 00:03:03;;;;;;;0.73;0.20;;;;;;;9.22;73.62;99434.13;3163085;28;20441;-69
2023/12/15 00:04:35;;;;;;;0.75;0.20;;;;;;;9.21;73.68;99445.44;3156163;28;20166;-69
2023/12/15 00:06:06;;;;;;;0.60;0.10;;;;;;;9.24;73.76;99453.09;3166768;28;20046;-70
2023/12/15 00:07:38;;;;;;;0.70;0.10;;;;;;;9.24;73.58;99459.13;3169164;28;20062;-71
2023/12/15 00:09:09;;;;;;;0.57;0.13;;;;;;;9.21;73.78;99448.88;3165395;28;20141;-70
2023/12/15 00:10:40;;;;;;;1.08;0.10;;;;;;;9.20;74.06;99451.53;3162648;28;20525;-71
2023/12/15 00:12:11;;;;;;;0.57;0.20;;;;;;;9.20;74.00;99456.72;3166237;28;20070;-72
2023/12/15 00:13:43;;;;;;;1.85;0.10;;;;;;;9.19;73.90;99462.84;3165987;28;20631;-70
2023/12/15 00:15:15;;;;;;;2.22;0.20;;;;;;;9.19;73.73;99473.25;3158177;28;20052;-71
2023/12/15 00:16:47;;;;;;;0.45;0.15;;;;;;;9.17;74.00;99470.72;3171330;28;20055;-72
2023/12/15 00:18:18;;;;;;;0.30;0.10;;;;;;;9.16;73.53;99457.78;3171031;28;20077;-72
2023/12/15 00:19:49;;;;;;;1.75;0.17;;;;;;;9.18;73.85;99475.00;3160729;28;20040;-72
2023/12/15 00:21:22;;;;;;;0.25;0.10;;;;;;;9.19;73.42;99479.28;3168738;28;20055;-71
2023/12/15 00:22:54;;;;;;;0.38;0.10;;;;;;;9.17;73.59;99488.91;3171135;28;20120;-72
2023/12/15 00:24:26;;;;;;;0.20;0.10;;;;;;;9.19;73.74;99486.25;3170935;28;20172;-71
2023/12/15 00:25:57;;;;;;;0.32;0.20;;;;;;;9.18;73.28;99484.56;3171126;28;20497;-71
2023/12/15 00:27:28;;;;;;;0.10;0.00;;;;;;;9.18;73.30;99485.41;3165234;28;20197;-71
2023/12/15 00:28:59;;;;;;;0.40;0.20;;;;;;;9.19;73.24;99486.25;3162744;28;20500;-72
2023/12/15 00:30:32;;;;;;;0.40;0.10;;;;;;;9.18;73.43;99487.16;3158773;28;20040;-72
2023/12/15 00:32:04;;;;;;;0.60;0.10;;;;;;;9.13;73.30;99479.56;3158299;28;20441;-77
2023/12/15 00:33:35;;;;;;;1.40;0.13;;;;;;;9.19;72.88;99486.25;3161367;28;20047;-74
2023/12/15 00:35:07;;;;;;;2.97;0.25;;;;;;;9.17;72.86;99488.91;3157871;28;20044;-73
2023/12/15 00:36:38;;;;;;;0.30;0.10;;;;;;;9.10;72.85;99487.47;3167927;28;20059;-73
2023/12/15 00:38:09;;;;;;;0.40;0.20;;;;;;;9.20;72.75;99506.09;3158036;28;20485;-73
2023/12/15 00:39:41;;;;;;;0.22;0.10;;;;;;;9.17;72.98;99504.50;3159371;28;20048;-71
2023/12/15 00:41:12;;;;;;;0.82;0.15;;;;;;;9.18;72.88;99506.19;3164958;28;20442;-72
2023/12/15 00:42:44;;;;;;;0.35;0.15;;;;;;;9.21;72.54;99500.00;3165636;28;20051;-72
2023/12/15 00:44:14;;;;;;;0.93;0.10;;;;;;;9.21;72.47;99505.22;3158339;28;20512;-71
2023/12/15 00:45:48;;;;;;;1.48;0.20;;;;;;;9.23;72.37;99501.63;3158229;28;20059;-72
2023/12/15 00:47:18;;;;;;;0.25;0.10;;;;;;;9.20;72.10;99513.88;3168592;28;20058;-72
2023/12/15 00:48:50;;;;;;;0.28;0.10;;;;;;;9.19;71.99;99513.06;3171017;28;20044;-72
2023/12/15 00:50:21;;;;;;;0.10;0.00;;;;;;;9.21;72.16;99526.84;3161623;28;20510;-71
2023/12/15 00:51:53;;;;;;;0.30;0.10;;;;;;;9.22;71.80;99519.88;3158099;28;20054;-71
2023/12/15 00:53:23;;;;;;;0.22;0.10;;;;;;;9.23;72.02;99518.94;3158298;28;20056;-69
2023/12/15 00:54:55;;;;;;;0.03;0.00;;;;;;;9.24;71.89;99526.69;3157897;28;20464;-71
2023/12/15 00:56:27;;;;;;;0.22;0.10;;;;;;;9.21;71.89;99528.59;3158459;28;20524;-73
2023/12/15 00:57:58;;;;;;;0.30;0.10;;;;;;;9.17;71.79;99517.50;3163699;28;20052;-72
2023/12/15 00:59:29;;;;;;;0.10;0.00;;;;;;;9.18;72.29;99513.97;3158062;28;20044;-73
2023/12/15 01:01:01;;;;;;;1.95;0.10;;;;;;;9.20;71.97;99509.56;3159719;28;20047;-73
2023/12/15 01:02:33;;;;;;;0.22;0.15;;;;;;;9.19;72.19;99513.06;3168009;28;20500;-73
2023/12/15 01:04:04;;;;;;;0.40;0.15;;;;;;;9.20;71.84;99516.50;3157637;28;20048;-73
2023/12/15 01:05:36;;;;;;;0.32;0.15;;;;;;;9.21;71.80;99510.41;3157161;28;20048;-77
2023/12/15 01:07:07;;;;;;;0.00;0.00;;;;;;;9.19;71.75;99515.66;3170949;28;20068;-69
2023/12/15 01:08:39;;;;;;;1.23;0.10;;;;;;;9.21;71.96;99528.59;3170939;28;20583;-70
2023/12/15 01:10:10;;;;;;;0.20;0.10;;;;;;;9.20;71.63;99530.34;3158744;28;20052;-69
2023/12/15 01:11:41;;;;;;;0.30;0.10;;;;;;;9.20;72.00;99530.34;3163418;28;20443;-70
2023/12/15 01:13:12;;;;;;;0.20;0.10;;;;;;;9.18;71.55;99526.97;3168777;28;20055;-71
2023/12/15 01:14:44;;;;;;;0.68;0.10;;;;;;;9.18;71.65;99537.34;3157888;28;20047;-70
2023/12/15 01:16:16;;;;;;;0.40;0.20;;;;;;;9.20;71.87;99540.75;3169312;28;20141;-70
2023/12/15 01:17:48;;;;;;;0.93;0.10;;;;;;;9.18;71.92;99539.13;3162238;28;20062;-70
2023/12/15 01:19:18;;;;;;;0.22;0.03;;;;;;;9.20;71.47;99545.06;3157867;28;20056;-70
2023/12/15 01:20:50;;;;;;;0.10;0.10;;;;;;;9.18;71.72;99542.56;3158247;28;20067;-69
2023/12/15 01:22:21;;;;;;;0.30;0.10;;;;;;;9.20;71.56;99551.13;3162792;28;20043;-71
2023/12/15 01:23:52;;;;;;;0.10;0.00;;;;;;;9.20;71.71;99551.13;3165592;28;20734;-70
2023/12/15 01:25:23;;;;;;;0.47;0.20;;;;;;;9.20;71.53;99553.72;3157687;28;20048;-70
2023/12/15 01:26:55;;;;;;;1.40;0.17;;;;;;;9.19;71.79;99553.78;3160598;28;20087;-69
2023/12/15 01:28:26;;;;;;;2.03;0.10;;;;;;;9.17;71.71;99553.88;3155039;28;20055;-69
2023/12/15 01:29:58;;;;;;;0.45;0.10;;;;;;;9.19;71.77;99562.41;3157673;28;20048;-70
2023/12/15 01:31:31;;;;;;;0.55;0.15;;;;;;;9.19;71.57;99564.19;3164572;28;20128;-70
2023/12/15 01:33:02;;;;;;;0.52;0.10;;;;;;;9.18;71.75;99560.75;3152498;28;20056;-71
2023/12/15 01:34:33;;;;;;;0.10;0.00;;;;;;;9.19;71.56;99559.81;3152418;28;20052;-70
2023/12/15 01:36:06;;;;;;;0.30;0.10;;;;;;;9.10;71.58;99544.63;3156581;28;20075;-70
2023/12/15 01:37:37;;;;;;;0.10;0.10;;;;;;;9.14;71.99;99567.00;3163693;28;20488;-69
2023/12/15 01:39:09;;;;;;;0.20;0.10;;;;;;;9.15;71.93;99567.81;3154657;28;20056;-70
2023/12/15 01:40:40;;;;;;;0.20;0.10;;;;;;;9.15;72.10;99565.22;3153478;28;20300;-69
2023/12/15 01:42:12;;;;;;;0.10;0.00;;;;;;;9.14;71.92;99563.53;3155190;28;20048;-72
2023/12/15 01:43:43;;;;;;;0.10;0.05;;;;;;;9.13;72.08;99562.69;3161890;28;20439;-69
2023/12/15 01:45:15;;;;;;;0.10;0.00;;;;;;;9.14;71.74;99568.72;3157813;28;20056;-70
2023/12/15 01:46:47;;;;;;;0.10;0.00;;;;;;;9.13;71.83;99578.28;3152054;28;20047;-69
2023/12/15 01:48:19;;;;;;;0.17;0.00;;;;;;;9.10;72.26;99591.41;3152461;28;20066;-70
2023/12/15 01:49:50;;;;;;;0.10;0.10;;;;;;;9.01;72.29;99579.63;3157475;28;20116;-68
2023/12/15 01:51:22;;;;;;;0.20;0.03;;;;;;;9.08;72.09;99590.59;3164783;28;20051;-68
2023/12/15 01:52:53;;;;;;;1.08;0.20;;;;;;;9.09;72.16;99595.75;3160811;28;20052;-69
2023/12/15 01:54:25;;;;;;;0.10;0.10;;;;;;;9.09;72.52;99600.94;3152202;28;20762;-68
2023/12/15 01:55:55;;;;;;;0.08;0.00;;;;;;;9.07;72.35;99597.56;3156405;28;20055;-69
2023/12/15 01:57:27;;;;;;;0.57;0.10;;;;;;;9.06;72.46;99602.84;3155481;28;20051;-69
2023/12/15 01:58:58;;;;;;;0.40;0.10;;;;;;;9.05;72.28;99599.41;3164727;28;20051;-68
2023/12/15 02:00:30;;;;;;;2.47;0.38;;;;;;;9.05;72.36;99611.50;3164909;28;20577;-68
2023/12/15 02:02:02;;;;;;;0.82;0.10;;;;;;;9.06;72.64;99608.03;3159567;28;20085;-68
2023/12/15 02:03:35;;;;;;;0.40;0.10;;;;;;;9.05;72.47;99598.53;3153271;28;20051;-69
2023/12/15 02:05:07;;;;;;;0.10;0.00;;;;;;;9.02;72.62;99602.13;3152781;28;20317;-69
2023/12/15 02:06:38;;;;;;;0.20;0.10;;;;;;;9.01;72.90;99617.75;3160779;28;20481;-69
2023/12/15 02:08:11;;;;;;;0.50;0.10;;;;;;;9.01;72.83;99623.78;3156175;28;20055;-68
2023/12/15 02:09:42;;;;;;;1.48;0.03;;;;;;;8.99;73.09;99625.63;3160126;28;20093;-67
2023/12/15 02:11:13;;;;;;;0.30;0.00;;;;;;;8.97;72.91;99613.59;3158638;28;20094;-68
2023/12/15 02:12:44;;;;;;;0.00;0.00;;;;;;;8.99;72.85;99614.38;3160329;28;20056;-67
2023/12/15 02:14:16;;;;;;;0.43;0.15;;;;;;;9.00;73.00;99611.72;3154323;28;20116;-67
2023/12/15 02:15:47;;;;;;;0.22;0.05;;;;;;;8.93;73.12;99599.88;3151845;28;20044;-68
2023/12/15 02:17:20;;;;;;;0.20;0.10;;;;;;;8.97;73.02;99614.44;3155339;28;20527;-67
2023/12/15 02:18:51;;;;;;;1.67;0.10;;;;;;;8.96;73.13;99617.97;3164508;28;20058;-67
2023/12/15 02:20:22;;;;;;;0.35;0.10;;;;;;;9.01;73.21;99628.97;3163931;28;20132;-69
2023/12/15 02:21:53;;;;;;;0.20;0.00;;;;;;;8.98;73.30;99625.69;3164557;28;20706;-69
2023/12/15 02:23:26;;;;;;;0.00;0.00;;;;;;;8.96;73.36;99630.06;3163993;28;20104;-69
2023/12/15 02:24:58;;;;;;;0.90;0.03;;;;;;;8.55;73.33;99559.94;3156015;28;20055;-68
2023/12/15 02:26:29;;;;;;;0.08;0.00;;;;;;;8.98;73.17;99628.28;3151946;28;20449;-68
2023/12/15 02:28:01;;;;;;;0.20;0.10;;;;;;;8.98;73.51;99636.06;3153057;28;20047;-69
2023/12/15 02:29:33;;;;;;;0.25;0.00;;;;;;;8.96;73.38;99630.94;3162938;28;20058;-69
2023/12/15 02:31:05;;;;;;;0.30;0.10;;;;;;;8.97;73.37;99637.81;3154163;28;20151;-69
2023/12/15 02:32:36;;;;;;;1.77;0.10;;;;;;;8.97;73.42;99648.22;3161146;28;20074;-79
2023/12/15 02:34:08;;;;;;;0.10;0.00;;;;;;;8.84;73.46;99634.91;3155873;28;20079;-69
2023/12/15 02:35:40;;;;;;;0.50;0.47;;;;;;;8.96;73.39;99651.72;3155798;28;20551;-70
2023/12/15 02:37:11;;;;;;;1.77;0.10;;;;;;;8.96;73.50;99651.72;3163983;28;20400;-70
2023/12/15 02:38:43;;;;;;;0.80;0.22;;;;;;;8.98;73.85;99654.25;3158050;28;20047;-69
2023/12/15 02:40:15;;;;;;;1.00;0.20;;;;;;;8.93;73.92;99656.19;3158218;28;20055;-69
2023/12/15 02:41:46;;;;;;;0.22;0.10;;;;;;;8.85;74.01;99653.91;3158637;28;20043;-68
2023/12/15 02:43:18;;;;;;;0.80;0.30;;;;;;;8.93;74.05;99666.56;3156212;28;20250;-68
2023/12/15 02:44:49;;;;;;;0.10;0.08;;;;;;;8.91;73.92;99663.22;3164131;28;20043;-68
2023/12/15 02:46:21;;;;;;;0.38;0.10;;;;;;;8.89;74.09;99668.44;3161984;28;20193;-68
2023/12/15 02:47:51;;;;;;;1.75;0.52;;;;;;;8.91;74.26;99669.25;3158462;28;20051;-69
2023/12/15 02:49:23;;;;;;;1.63;0.10;;;;;;;8.89;73.88;99665.84;3151815;28;20076;-68
2023/12/15 02:50:54;;;;;;;0.25;0.10;;;;;;;8.86;73.94;99659.03;3158554;28;20055;-68
2023/12/15 02:52:26;;;;;;;0.13;0.10;;;;;;;8.88;74.26;99674.56;3151750;28;20087;-76
2023/12/15 02:53:59;;;;;;;0.35;0.10;;;;;;;8.88;73.94;99672.81;3154972;28;20661;-77
2023/12/15 02:55:31;;;;;;;0.00;0.00;;;;;;;8.85;74.30;99670.34;3163884;28;20087;-76
2023/12/15 02:57:02;;;;;;;0.20;0.10;;;;;;;8.86;74.21;99674.59;3153671;28;20523;-77
2023/12/15 02:58:34;;;;;;;0.15;0.10;;;;;;;8.87;74.28;99676.31;3152120;28;20124;-80
2023/12/15 03:00:06;;;;;;;1.10;0.10;;;;;;;8.87;73.98;99672.84;3160883;28;20139;-83
2023/12/15 03:01:38;;;;;;;0.30;0.10;;;;;;;8.86;74.37;99671.16;3159729;28;20070;-85
2023/12/15 03:03:08;;;;;;;0.17;0.10;;;;;;;8.86;74.52;99672.00;3155194;28;20063;-83
2023/12/15 03:04:40;;;;;;;1.17;0.30;;;;;;;8.83;74.35;99671.28;3158633;28;20106;-86
2023/12/15 03:06:12;;;;;;;0.40;0.20;;;;;;;8.63;74.31;99640.94;3158780;28;20048;-84
2023/12/15 03:07:43;;;;;;;0.10;0.10;;;;;;;8.87;74.25;99676.31;3154455;28;20054;-85
2023/12/15 03:09:16;;;;;;;0.20;0.10;;;;;;;8.83;74.18;99677.31;3155822;28;20580;-86
2023/12/15 03:10:47;;;;;;;0.90;0.30;;;;;;;8.87;74.08;99678.91;3154154;28;20048;-86
2023/12/15 03:12:18;;;;;;;0.20;0.10;;;;;;;8.86;74.14;99682.41;3158204;28;20051;-83
2023/12/15 03:13:50;;;;;;;0.15;0.10;;;;;;;8.86;73.91;99686.75;3155746;28;20108;-85
2023/12/15 03:15:21;;;;;;;0.63;0.25;;;;;;;8.83;74.40;99674.72;3151764;28;20056;-81
2023/12/15 03:16:53;;;;;;;1.08;0.10;;;;;;;8.85;74.18;99685.91;3155766;28;20115;-82
2023/12/15 03:18:23;;;;;;;0.60;0.10;;;;;;;8.85;74.28;99685.91;3151955;28;20496;-83
2023/12/15 03:19:55;;;;;;;0.22;0.10;;;;;;;8.26;74.17;99598.22;3151566;28;20138;-83
2023/12/15 03:21:26;;;;;;;0.30;0.10;;;;;;;8.84;73.99;99692.03;3152034;28;20052;-76
2023/12/15 03:23:00;;;;;;;0.20;0.10;;;;;;;8.77;74.29;99674.13;3164199;28;20112;-81
2023/12/15 03:24:32;;;;;;;0.20;0.10;;;;;;;8.86;73.88;99692.78;3153902;28;20159;-75
2023/12/15 03:26:04;;;;;;;1.70;0.70;;;;;;;8.84;74.01;99698.94;3151773;28;20097;-77
2023/12/15 03:27:35;;;;;;;0.20;0.10;;;;;;;8.83;73.85;99692.91;3151387;28;20052;-77
2023/12/15 03:29:07;;;;;;;0.75;0.20;;;;;;;8.84;74.18;99696.34;3151596;28;20557;-77
2023/12/15 03:30:38;;;;;;;0.28;0.10;;;;;;;8.78;74.23;99697.44;3151540;28;20135;-76
2023/12/15 03:32:10;;;;;;;0.52;0.10;;;;;;;8.84;74.29;99699.81;3159916;28;20059;-77
2023/12/15 03:33:41;;;;;;;0.13;0.10;;;;;;;8.83;74.10;99703.28;3164181;28;20055;-76
2023/12/15 03:35:13;;;;;;;0.40;0.10;;;;;;;8.84;74.27;99704.13;3159147;28;20052;-75
2023/12/15 03:36:43;;;;;;;0.80;0.47;;;;;;;8.84;74.06;99709.31;3153465;28;20040;-75
2023/12/15 03:38:15;;;;;;;0.52;0.13;;;;;;;8.83;74.35;99707.66;3154797;28;20066;-76
2023/12/15 03:39:47;;;;;;;0.65;0.20;;;;;;;8.82;75.04;99711.16;3164215;28;20051;-76
2023/12/15 03:41:19;;;;;;;0.38;0.20;;;;;;;8.79;75.24;99722.50;3157629;28;20059;-76
2023/12/15 03:42:50;;;;;;;0.20;0.20;;;;;;;8.76;75.66;99714.00;3158436;28;20051;-75
2023/12/15 03:44:22;;;;;;;0.73;0.20;;;;;;;8.79;75.47;99722.50;3151845;28;20052;-76
2023/12/15 03:45:52;;;;;;;0.20;0.10;;;;;;;8.79;75.68;99717.31;3153751;28;20051;-76
2023/12/15 03:47:24;;;;;;;0.52;0.10;;;;;;;8.75;75.93;99722.66;3153943;28;20079;-76
2023/12/15 03:48:55;;;;;;;0.20;0.10;;;;;;;8.78;76.51;99722.56;3154491;28;20056;-77
2023/12/15 03:50:27;;;;;;;0.00;0.00;;;;;;;8.71;76.62;99710.72;3154342;28;20105;-77
2023/12/15 03:51:58;;;;;;;1.38;0.08;;;;;;;8.73;76.55;99727.09;3154234;28;20454;-76
2023/12/15 03:53:29;;;;;;;0.50;0.10;;;;;;;8.68;77.14;99723.81;3158593;28;20181;-76
2023/12/15 03:55:02;;;;;;;2.15;0.52;;;;;;;8.68;76.86;99724.66;3160923;28;20518;-76
2023/12/15 03:56:34;;;;;;;0.60;0.30;;;;;;;8.64;77.24;99731.72;3153990;28;20418;-76
2023/12/15 03:58:05;;;;;;;0.28;0.20;;;;;;;8.66;77.72;99731.66;3160049;28;20805;-79
2023/12/15 03:59:38;;;;;;;2.28;0.13;;;;;;;8.65;78.04;99736.00;3166487;28;20093;-78
2023/12/15 04:01:09;;;;;;;0.20;0.10;;;;;;;8.63;77.90;99742.16;3161690;28;20079;-75
2023/12/15 04:02:41;;;;;;;0.38;0.15;;;;;;;8.63;78.55;99739.56;3154047;28;20055;-77
2023/12/15 04:04:12;;;;;;;0.75;0.30;;;;;;;8.46;78.63;99714.28;3155353;28;20048;-78
2023/12/15 04:05:44;;;;;;;2.28;0.30;;;;;;;8.55;78.78;99733.84;3153329;28;20505;-77
2023/12/15 04:07:15;;;;;;;0.77;0.20;;;;;;;8.48;78.83;99730.59;3159240;28;20052;-78
2023/12/15 04:08:47;;;;;;;3.30;0.20;;;;;;;8.56;79.28;99744.16;3153728;28;20387;-77
2023/12/15 04:10:20;;;;;;;1.77;0.30;;;;;;;8.56;79.40;99748.50;3153931;28;20413;-77
2023/12/15 04:11:51;;;;;;;0.50;0.30;;;;;;;8.43;79.58;99743.78;3160499;28;20051;-79
2023/12/15 04:13:22;;;;;;;1.58;0.55;;;;;;;8.48;79.74;99758.31;3157548;28;20044;-76
2023/12/15 04:14:53;;;;;;;1.10;0.60;;;;;;;8.48;79.98;99753.13;3155727;28;20109;-79
2023/12/15 04:16:25;;;;;;;1.90;0.52;;;;;;;8.45;79.94;99740.25;3162892;28;20118;-78
2023/12/15 04:17:56;;;;;;;0.80;0.30;;;;;;;8.43;79.95;99732.56;3163669;28;20096;-80
2023/12/15 04:19:28;;;;;;;0.90;0.25;;;;;;;8.47;79.93;99746.25;3161636;28;20504;-79
2023/12/15 04:20:59;;;;;;;1.33;0.30;;;;;;;8.45;80.08;99742.88;3158692;28;20445;-77
2023/12/15 04:22:31;;;;;;;0.90;0.25;;;;;;;8.43;80.02;99761.94;3157971;28;20044;-77
2023/12/15 04:24:02;;;;;;;0.57;0.30;;;;;;;8.42;80.41;99751.59;3153634;28;20060;-81
2023/12/15 04:25:35;;;;;;;0.80;0.32;;;;;;;8.42;80.12;99749.84;3154813;28;20067;-77
2023/12/15 04:27:06;;;;;;;0.25;0.20;;;;;;;8.39;80.17;99755.16;3161250;28;20595;-79
2023/12/15 04:28:38;;;;;;;0.43;0.20;;;;;;;8.38;80.40;99763.84;3153795;28;20127;-76
2023/12/15 04:30:10;;;;;;;2.17;0.40;;;;;;;8.37;80.36;99763.84;3153363;28;20056;-76
2023/12/15 04:31:42;;;;;;;1.45;0.45;;;;;;;8.37;80.43;99772.53;3153496;28;20880;-76
2023/12/15 04:33:13;;;;;;;0.63;0.30;;;;;;;8.37;80.66;99776.84;3166078;28;20056;-77
2023/12/15 04:34:45;;;;;;;2.20;0.40;;;;;;;8.35;80.59;99773.47;3165357;28;20226;-77
2023/12/15 04:36:19;;;;;;;1.17;0.63;;;;;;;8.36;80.91;99777.75;3157162;28;20168;-76
2023/12/15 04:37:49;;;;;;;2.40;0.38;;;;;;;8.36;80.60;99770.81;3154912;28;20516;-77
2023/12/15 04:39:21;;;;;;;1.00;0.20;;;;;;;8.37;80.89;99766.47;3153979;28;20082;-77
2023/12/15 04:40:53;;;;;;;0.63;0.30;;;;;;;8.32;80.66;99761.44;3161823;28;20105;-78
2023/12/15 04:42:27;;;;;;;1.45;0.40;;;;;;;8.35;80.86;99763.94;3157387;28;20048;-79
2023/12/15 04:43:58;;;;;;;1.00;0.20;;;;;;;8.31;80.94;99762.38;3156038;28;20506;-74
2023/12/15 04:45:30;;;;;;;1.20;0.45;;;;;;;8.23;80.76;99753.16;3152981;28;20113;-75
2023/12/15 04:47:01;;;;;;;1.70;0.60;;;;;;;8.31;80.86;99777.06;3155275;28;20075;-75
2023/12/15 04:48:32;;;;;;;1.95;0.68;;;;;;;8.29;81.01;99782.31;3160313;28;20522;-76
2023/12/15 04:50:04;;;;;;;1.75;0.70;;;;;;;8.29;81.33;99790.09;3159486;28;20551;-76
2023/12/15 04:51:36;;;;;;;0.95;0.40;;;;;;;8.29;81.06;99776.28;3157867;28;20136;-74
2023/12/15 04:53:07;;;;;;;0.90;0.60;;;;;;;8.28;81.02;99783.22;3157866;28;20051;-75
2023/12/15 04:54:39;;;;;;;1.13;0.47;;;;;;;8.30;81.15;99783.16;3155189;28;20131;-74
2023/12/15 04:56:11;;;;;;;1.00;0.40;;;;;;;8.31;81.35;99782.25;3152094;28;20414;-75
2023/12/15 04:57:43;;;;;;;0.88;0.35;;;;;;;8.28;81.25;99787.53;3154858;28;20526;-74
2023/12/15 04:59:14;;;;;;;1.00;0.47;;;;;;;8.24;81.15;99780.78;3162966;28;20056;-72
2023/12/15 05:00:46;;;;;;;0.98;0.40;;;;;;;8.24;81.07;99783.38;3159045;28;20649;-79
2023/12/15 05:02:17;;;;;;;0.68;0.40;;;;;;;8.27;81.55;99796.25;3164952;28;20062;-78
2023/12/15 05:03:49;;;;;;;2.00;0.60;;;;;;;8.21;81.10;99794.72;3155434;28;20075;-76
2023/12/15 05:05:19;;;;;;;0.70;0.47;;;;;;;8.28;81.46;99809.19;3155557;28;21168;-72
2023/12/15 05:06:51;;;;;;;1.58;0.47;;;;;;;8.27;81.24;99809.22;3154272;28;20573;-70
2023/12/15 05:08:22;;;;;;;1.15;0.38;;;;;;;8.29;81.19;99812.63;3165431;28;20052;-76
2023/12/15 05:09:54;;;;;;;1.35;0.50;;;;;;;8.23;81.40;99808.47;3155406;28;20044;-76
2023/12/15 05:11:26;;;;;;;1.02;0.30;;;;;;;8.25;81.33;99822.22;3156183;28;20067;-72
2023/12/15 05:12:58;;;;;;;0.88;0.30;;;;;;;8.12;81.19;99813.19;3156798;28;20220;-73
2023/12/15 05:14:29;;;;;;;0.90;0.30;;;;;;;8.21;81.68;99838.81;3153667;28;20459;-73
2023/12/15 05:16:01;;;;;;;6.88;3.03;;;;;;;8.16;81.83;99819.97;3159480;28;20051;-71
2023/12/15 05:17:32;;;;;;;4.15;1.85;;;;;;;8.25;81.33;99835.19;3163389;28;20531;-69
2023/12/15 05:19:04;;;;;;;3.50;1.95;;;;;;;8.25;81.42;99829.16;3157624;28;20492;-71
2023/12/15 05:20:37;;;;;;;2.65;0.73;;;;;;;8.30;81.44;99842.84;3160905;28;20125;-73
2023/12/15 05:22:08;;;;;;;1.58;0.70;;;;;;;8.30;81.25;99848.88;3152525;28;20968;-75
2023/12/15 05:23:40;;;;;;;2.83;0.60;;;;;;;8.31;81.50;99841.91;3152385;28;20466;-72
2023/12/15 05:25:12;;;;;;;1.15;0.47;;;;;;;8.04;81.27;99799.63;3164105;28;20062;-66
2023/12/15 05:26:44;;;;;;;1.20;0.60;;;;;;;8.28;81.58;99837.72;3164973;28;20801;-67
2023/12/15 05:28:16;;;;;;;30.55;12.82;;;;;;;8.28;81.71;99839.44;3155569;28;20126;-71
2023/12/15 05:29:46;;;;;;;7.70;3.78;;;;;;;8.30;81.54;99837.66;3162237;28;20074;-66
2023/12/15 05:31:18;;;;;;;2.75;1.27;;;;;;;8.32;81.61;99830.66;3156693;28;20175;-68
2023/12/15 05:32:49;;;;;;;6.13;2.33;;;;;;;8.34;81.57;99842.69;3160679;28;20657;-61
2023/12/15 05:34:21;;;;;;;4.07;1.50;;;;;;;8.35;81.53;99844.38;3152835;28;20052;-65
2023/12/15 05:35:52;;;;;;;1.23;0.60;;;;;;;8.33;81.52;99840.97;3157249;28;20050;-65
2023/12/15 05:37:23;;;;;;;3.50;0.90;;;;;;;8.34;81.88;99842.69;3151991;28;20044;-66
2023/12/15 05:38:54;;;;;;;3.53;0.60;;;;;;;8.35;81.86;99849.56;3152466;28;20059;-63
2023/12/15 05:40:26;;;;;;;1.33;0.70;;;;;;;8.33;81.68;99858.28;3152184;28;20048;-63
2023/12/15 05:41:58;;;;;;;0.55;0.38;;;;;;;8.29;81.76;99852.38;3157022;28;20128;-65
2023/12/15 05:43:30;;;;;;;1.58;0.57;;;;;;;8.29;81.85;99864.50;3160223;28;20082;-62
2023/12/15 05:45:01;;;;;;;4.82;1.98;;;;;;;8.29;82.11;99854.97;3152533;28;20056;-66
2023/12/15 05:46:35;;;;;;;3.60;1.50;;;;;;;8.32;82.07;99852.25;3152134;28;20568;-64
2023/12/15 05:48:05;;;;;;;3.88;2.55;;;;;;;8.33;82.15;99853.94;3152788;28;20048;-63
2023/12/15 05:49:39;;;;;;;3.25;1.45;;;;;;;8.36;82.02;99851.25;3164691;28;20552;-63
2023/12/15 05:51:10;;;;;;;3.97;1.50;;;;;;;8.39;82.28;99860.72;3152906;28;20052;-61
2023/12/15 05:52:42;;;;;;;8.57;4.60;;;;;;;8.39;82.14;99851.16;3162904;28;20362;-64
2023/12/15 05:54:13;;;;;;;1.92;0.68;;;;;;;8.40;81.98;99860.66;3155470;28;20059;-65
2023/12/15 05:55:45;;;;;;;1.20;0.70;;;;;;;8.37;81.67;99863.34;3152433;28;20051;-66
2023/12/15 05:57:17;;;;;;;1.70;0.55;;;;;;;8.37;81.77;99865.94;3151820;28;20079;-64
2023/12/15 05:58:53;;;;;;;1.35;0.80;;;;;;;8.36;81.64;99874.59;3164671;28;20109;-64
2023/12/15 06:00:30;;;;;;;1.10;0.50;;;;;;;8.33;82.07;99877.31;3152507;28;20058;-64
2023/12/15 06:02:02;;;;;;;1.13;0.52;;;;;;;8.30;82.08;99887.78;3158869;28;20090;-65
2023/12/15 06:03:33;;;;;;;1.20;0.70;;;;;;;8.28;81.98;99887.00;3155290;28;20063;-63
2023/12/15 06:05:06;;;;;;;1.95;1.02;;;;;;;8.29;81.95;99890.44;3151839;28;20525;-63
2023/12/15 06:06:39;;;;;;;1.25;0.60;;;;;;;8.26;82.22;99885.38;3161179;28;20120;-63
2023/12/15 06:08:13;;;;;;;;;;;;;;;8.13;82.82;99877.13;3164448;28;20166;-64
2023/12/15 06:09:44;;;;;;;2.78;1.08;;;;;;;8.14;83.03;99866.72;3156234;28;20014;-64
2023/12/15 06:11:17;;;;;;;1.73;0.95;;;;;;;8.18;82.65;99870.06;3157018;28;20051;-64
2023/12/15 06:12:50;;;;;;;1.67;0.85;;;;;;;8.20;82.68;99879.47;3154779;28;20113;-64
2023/12/15 06:14:22;;;;;;;2.25;0.70;;;;;;;8.18;82.89;99888.22;3155942;28;20082;-63
2023/12/15 06:15:53;;;;;;;2.97;0.90;;;;;;;8.19;82.95;99888.16;3152070;28;20048;-65
2023/12/15 06:17:25;;;;;;;2.63;0.88;;;;;;;8.17;83.51;99889.97;3154940;28;20091;-66
2023/12/15 06:18:56;;;;;;;2.40;1.10;;;;;;;8.17;83.09;99892.56;3161430;28;20128;-65
2023/12/15 06:20:28;;;;;;;3.65;1.00;;;;;;;8.17;83.23;99895.16;3158162;28;20096;-66
2023/12/15 06:21:59;;;;;;;1.58;0.60;;;;;;;7.81;83.51;99840.19;3153444;28;20125;-68
2023/12/15 06:23:31;;;;;;;2.42;0.95;;;;;;;8.17;83.61;99905.53;3159984;28;20509;-67
2023/12/15 06:25:02;;;;;;;4.43;0.93;;;;;;;7.83;83.99;99853.06;3156676;28;20524;-67
2023/12/15 06:26:34;;;;;;;2.35;0.80;;;;;;;8.17;84.04;99908.13;3163989;28;20686;-67
2023/12/15 06:28:09;;;;;;;2.55;0.93;;;;;;;8.20;83.83;99909.75;3155648;28;20048;-68
2023/12/15 06:29:41;;;;;;;1.77;0.75;;;;;;;8.15;84.34;99916.84;3151069;28;20151;-66
2023/12/15 06:31:13;;;;;;;1.67;0.70;;;;;;;8.13;84.41;99914.31;3151621;28;20098;-66
2023/12/15 06:32:45;;;;;;;2.97;1.10;;;;;;;8.13;84.67;99911.72;3164058;28;20112;-68
2023/12/15 06:34:16;;;;;;;1.30;0.75;;;;;;;8.12;84.75;99912.59;3163490;28;20170;-67
2023/12/15 06:35:48;;;;;;;1.83;0.95;;;;;;;8.05;85.00;99903.34;3163843;28;20143;-68
2023/12/15 06:37:19;;;;;;;1.83;0.77;;;;;;;8.10;85.20;99916.16;3152835;28;20044;-68
2023/12/15 06:38:52;;;;;;;1.75;0.90;;;;;;;8.11;85.00;99923.03;3155803;28;20199;-68
2023/12/15 06:40:22;;;;;;;1.73;0.95;;;;;;;8.11;84.96;99918.69;3154689;28;20121;-65
2023/12/15 06:41:55;;;;;;;4.75;1.25;;;;;;;8.12;85.03;99924.72;3158420;28;20095;-65
2023/12/15 06:43:27;;;;;;;3.42;1.40;;;;;;;8.13;85.27;99929.88;3158946;28;20078;-62
2023/12/15 06:45:07;;;;;;;3.25;1.75;;;;;;;8.11;85.20;99930.81;3151590;28;20129;-63
2023/12/15 06:46:39;;;;;;;3.65;1.58;;;;;;;8.10;85.18;99929.97;3160749;28;20127;-63
2023/12/15 06:48:11;;;;;;;4.70;1.65;;;;;;;8.10;85.64;99931.69;3155752;28;20052;-63
2023/12/15 06:49:42;;;;;;;3.38;1.52;;;;;;;8.05;85.51;99926.69;3151600;28;20266;-62
2023/12/15 06:51:14;;;;;;;3.58;1.50;;;;;;;8.08;85.62;99931.78;3162873;28;20472;-62
2023/12/15 06:52:44;;;;;;;5.40;1.70;;;;;;;8.09;85.97;99941.25;3155914;28;20052;-61
2023/12/15 06:54:16;;;;;;;3.65;1.80;;;;;;;8.10;85.92;99944.69;3163737;28;20339;-61
2023/12/15 06:55:48;;;;;;;4.30;1.90;;;;;;;8.11;85.73;99946.38;3155738;28;20572;-63
2023/12/15 06:57:22;;;;;;;4.38;2.08;;;;;;;8.10;86.07;99950.72;3150931;28;20052;-62
2023/12/15 06:58:55;;;;;;;5.03;2.00;;;;;;;8.10;86.27;99955.06;3156105;28;20143;-61
2023/12/15 07:00:27;;;;;;;5.15;2.15;;;;;;;8.08;86.37;99952.53;3154233;28;20051;-63
2023/12/15 07:02:01;;;;;;;4.47;2.03;;;;;;;8.09;86.53;99958.56;3156122;28;20071;-63
2023/12/15 07:03:33;;;;;;;5.82;2.13;;;;;;;8.08;86.69;99954.28;3155463;28;20056;-63
2023/12/15 07:05:06;;;;;;;4.63;2.10;;;;;;;8.07;86.89;99956.00;3151662;28;20076;-62
2023/12/15 07:06:37;;;;;;;5.32;2.40;;;;;;;8.06;87.13;99966.44;3151583;28;20056;-63
2023/12/15 07:08:10;;;;;;;5.55;2.33;;;;;;;8.06;87.29;99964.69;3152676;28;20424;-63
2023/12/15 07:09:41;;;;;;;5.43;2.20;;;;;;;8.06;87.62;99971.63;3158118;28;20099;-63
2023/12/15 07:11:13;;;;;;;5.18;2.60;;;;;;;8.04;87.77;99966.47;3158164;28;20060;-69
2023/12/15 07:12:44;;;;;;;7.22;2.85;;;;;;;8.04;87.99;99968.22;3158046;28;20052;-68
2023/12/15 07:14:17;;;;;;;6.43;2.58;;;;;;;8.04;88.21;99973.41;3163540;28;20062;-67
2023/12/15 07:15:48;;;;;;;6.88;2.70;;;;;;;8.02;88.07;99976.06;3163221;28;20827;-68